Time;durP1;ratioP1;P1;durP2;ratioP2;P2;SDS_P1;SDS_P2;PMS_P1;PMS_P2;Temp;Humidity;BMP_temperature;BMP_pressure;BME280_temperature;BME280_humidity;BME280_pressure;Samples;Min_cycle;Max_cycle;Signal;HPM_P1;HPM_P2
2022/01/21 00:00:24;;;;;;;6.20;1.60;;;-0.50;99.90;;;;;;5001885;28;20226;-80
2022/01/21 00:02:49;;;;;;;5.50;1.63;;;-0.50;99.90;;;;;;5002581;28;20170;-79
2022/01/21 00:05:15;;;;;;;6.67;1.63;;;-0.50;99.90;;;;;;5019322;28;20182;-79
2022/01/21 00:07:41;;;;;;;3.60;1.60;;;-0.50;99.90;;;;;;5017852;28;20228;-79
2022/01/21 00:10:11;;;;;;;4.20;1.57;;;-0.50;99.90;;;;;;5002063;28;20210;-80
2022/01/21 00:12:40;;;;;;;6.93;2.00;;;-0.40;99.90;;;;;;5003714;28;20230;-79
2022/01/21 00:15:08;;;;;;;6.63;1.60;;;-0.50;99.90;;;;;;5015228;28;20277;-79
2022/01/21 00:17:34;;;;;;;5.07;1.77;;;-0.50;99.90;;;;;;5019023;28;20264;-79
2022/01/21 00:30:58;;;;;;;5.07;1.43;;;-0.50;99.90;;;;;;5011690;28;20211;-78
2022/01/21 00:33:25;;;;;;;10.13;1.63;;;-0.50;99.90;;;;;;4996579;28;20259;-79
2022/01/21 00:35:51;;;;;;;5.97;1.70;;;-0.50;99.90;;;;;;4996657;28;20183;-79
2022/01/21 00:38:17;;;;;;;5.20;1.60;;;-0.40;99.90;;;;;;5030302;28;20190;-79
2022/01/21 00:40:44;;;;;;;12.30;1.80;;;-0.40;99.90;;;;;;4993076;28;20273;-81
2022/01/21 00:45:36;;;;;;;5.83;1.57;;;-0.30;99.90;;;;;;5038062;28;20208;-80
2022/01/21 00:48:02;;;;;;;9.10;2.50;;;-0.30;99.90;;;;;;5010144;28;20197;-79
2022/01/21 00:50:29;;;;;;;4.87;1.97;;;-0.30;99.90;;;;;;5024595;28;20205;-81
2022/01/21 00:52:55;;;;;;;6.27;1.73;;;-0.30;99.90;;;;;;5021844;28;20277;-80
2022/01/21 00:55:21;;;;;;;6.93;1.93;;;-0.20;99.90;;;;;;5014872;28;20205;-80
2022/01/21 00:57:47;;;;;;;7.83;1.60;;;-0.20;99.90;;;;;;5013038;28;20197;-80
2022/01/21 01:00:13;;;;;;;6.70;1.90;;;-0.20;99.90;;;;;;5014321;28;20221;-82
2022/01/21 01:02:40;;;;;;;6.83;2.10;;;-0.20;99.90;;;;;;5031093;28;20182;-81
2022/01/21 01:05:08;;;;;;;6.57;1.90;;;-0.10;99.90;;;;;;5021328;28;20210;-81
2022/01/21 01:07:34;;;;;;;8.87;2.03;;;-0.10;99.90;;;;;;5001918;28;20190;-79
2022/01/21 01:10:04;;;;;;;7.90;1.80;;;-0.10;99.90;;;;;;5017034;28;20210;-79
2022/01/21 01:12:52;;;;;;;6.03;2.03;;;-0.10;99.90;;;;;;5004545;28;20597;-80
2022/01/21 01:20:48;;;;;;;8.67;1.97;;;0.00;99.90;;;;;;5018020;28;20226;-79
2022/01/21 01:23:26;;;;;;;7.43;2.30;;;0.00;99.90;;;;;;4996715;28;20654;-80
2022/01/21 01:28:37;;;;;;;7.83;1.97;;;0.50;99.90;;;;;;5017839;28;20178;-78
2022/01/21 01:31:03;;;;;;;6.47;1.90;;;0.50;99.90;;;;;;5000845;28;20289;-80
2022/01/21 01:33:35;;;;;;;9.50;2.13;;;0.40;99.90;;;;;;4998528;28;20199;-79
2022/01/21 01:36:03;;;;;;;5.57;1.93;;;0.30;99.90;;;;;;5008150;28;20179;-79
2022/01/21 01:39:04;;;;;;;8.77;2.00;;;0.30;99.90;;;;;;4989683;28;20265;-78
2022/01/21 01:41:20;;;;;;;7.23;1.97;;;0.30;99.90;;;;;;4996918;28;20776;-78
2022/01/21 01:49:43;;;;;;;9.93;2.10;;;0.10;99.90;;;;;;5031845;28;20642;-79
2022/01/21 01:52:15;;;;;;;9.53;2.07;;;0.10;99.90;;;;;;5006213;28;20191;-78
2022/01/21 01:54:54;;;;;;;7.93;1.70;;;0.10;99.90;;;;;;5002704;28;20199;-78
2022/01/21 01:57:21;;;;;;;8.53;2.10;;;0.10;99.90;;;;;;4982753;28;20175;-79
2022/01/21 01:59:47;;;;;;;8.10;1.50;;;0.10;99.90;;;;;;4997257;28;20203;-78
2022/01/21 02:02:15;;;;;;;10.10;1.80;;;0.00;99.90;;;;;;4996546;28;20183;-79
2022/01/21 02:04:43;;;;;;;8.43;1.80;;;0.00;99.90;;;;;;5001077;28;20178;-82
2022/01/21 02:07:09;;;;;;;8.70;1.87;;;0.00;99.90;;;;;;4999095;28;20171;-79
2022/01/21 02:09:36;;;;;;;6.77;1.73;;;0.00;99.90;;;;;;4995224;28;20246;-80
2022/01/21 02:12:07;;;;;;;6.07;1.90;;;0.10;99.90;;;;;;5013256;28;20250;-81
2022/01/21 02:14:36;;;;;;;7.13;2.07;;;0.00;99.90;;;;;;5000642;28;20278;-81
2022/01/21 02:22:20;;;;;;;7.97;2.37;;;0.00;99.90;;;;;;5052421;28;20209;-80
2022/01/21 02:25:15;;;;;;;7.67;2.00;;;0.00;99.90;;;;;;5035304;28;20178;-79
2022/01/21 02:27:34;;;;;;;12.23;2.50;;;0.00;99.90;;;;;;5044949;28;20182;-79
2022/01/21 02:30:04;;;;;;;8.10;1.97;;;-0.10;99.90;;;;;;5020207;28;20207;-79
2022/01/21 02:32:32;;;;;;;8.83;1.80;;;-0.10;99.90;;;;;;5007703;28;20176;-79
2022/01/21 02:35:00;;;;;;;8.63;2.00;;;0.00;99.90;;;;;;5048845;28;20170;-79
2022/01/21 02:37:43;;;;;;;10.80;2.00;;;0.00;99.90;;;;;;5019893;28;20178;-79
2022/01/21 02:40:10;;;;;;;9.40;1.60;;;0.00;99.90;;;;;;5035192;28;20217;-79
2022/01/21 02:42:36;;;;;;;12.70;1.90;;;0.00;99.90;;;;;;5015647;28;20191;-79
2022/01/21 02:45:05;;;;;;;13.57;2.07;;;0.10;99.90;;;;;;4998957;28;20188;-79
2022/01/21 02:47:31;;;;;;;14.77;2.60;;;0.10;99.90;;;;;;5015412;28;20178;-81
2022/01/21 02:50:04;;;;;;;9.30;2.10;;;0.20;99.90;;;;;;5019145;28;20247;-81
2022/01/21 02:52:39;;;;;;;14.20;2.40;;;0.20;99.90;;;;;;5016783;28;20170;-79
2022/01/21 02:55:09;;;;;;;8.70;2.33;;;0.10;99.90;;;;;;5016969;28;20237;-79
2022/01/21 02:57:34;;;;;;;16.23;2.33;;;0.10;99.90;;;;;;5034218;28;20159;-79
2022/01/21 03:00:00;;;;;;;14.93;2.20;;;0.10;99.90;;;;;;5013796;28;20210;-79
2022/01/21 03:02:26;;;;;;;7.30;2.03;;;0.10;99.90;;;;;;5019760;28;20210;-78
2022/01/21 03:05:01;;;;;;;9.77;2.03;;;0.10;99.90;;;;;;5015677;28;20258;-78
2022/01/21 03:07:27;;;;;;;13.33;2.63;;;0.10;99.90;;;;;;4999623;28;20650;-78
2022/01/21 03:12:21;;;;;;;15.00;2.73;;;0.20;99.90;;;;;;5029378;28;20284;-80
2022/01/21 03:14:47;;;;;;;13.47;2.47;;;0.20;99.90;;;;;;5018451;28;20253;-80
2022/01/21 03:17:13;;;;;;;8.10;2.13;;;0.30;99.90;;;;;;5018540;28;20212;-79
2022/01/21 03:19:43;;;;;;;10.23;2.27;;;0.40;99.90;;;;;;5014881;28;20166;-79
2022/01/21 03:22:09;;;;;;;11.73;2.40;;;0.50;99.90;;;;;;5019303;28;20214;-80
2022/01/21 03:24:37;;;;;;;11.97;2.30;;;0.60;99.90;;;;;;5012947;28;20274;-79
2022/01/21 03:27:03;;;;;;;12.63;2.30;;;0.70;99.90;;;;;;5017902;28;20182;-79
2022/01/21 03:29:29;;;;;;;10.40;2.53;;;0.80;99.90;;;;;;5017139;28;20171;-80
2022/01/21 03:31:58;;;;;;;16.53;2.20;;;0.80;99.90;;;;;;5016662;28;20610;-78
2022/01/21 03:34:24;;;;;;;9.10;2.00;;;0.90;99.90;;;;;;4999861;28;20445;-79
2022/01/21 03:36:54;;;;;;;9.33;2.20;;;0.90;99.90;;;;;;5012402;28;20222;-80
2022/01/21 03:39:21;;;;;;;10.50;2.60;;;1.00;99.90;;;;;;5020665;28;20195;-79
2022/01/21 03:41:57;;;;;;;11.37;2.33;;;1.00;99.90;;;;;;5013312;28;20179;-79
2022/01/21 03:44:23;;;;;;;12.27;2.30;;;1.00;99.90;;;;;;5016703;28;20178;-79
2022/01/21 03:46:49;;;;;;;12.40;2.40;;;1.10;99.90;;;;;;5033741;28;20510;-79
2022/01/21 03:49:18;;;;;;;9.90;2.20;;;1.10;99.90;;;;;;5024890;28;20212;-80
2022/01/21 03:51:44;;;;;;;13.30;2.20;;;1.10;99.90;;;;;;5020965;28;20209;-80
2022/01/21 03:54:10;;;;;;;14.73;2.53;;;1.10;99.90;;;;;;5017638;28;20207;-79
2022/01/21 03:56:37;;;;;;;9.03;2.00;;;1.10;99.90;;;;;;5023389;28;20170;-80
2022/01/21 03:59:03;;;;;;;9.13;2.43;;;1.20;99.90;;;;;;5018738;28;20166;-80
2022/01/21 04:01:29;;;;;;;18.53;3.30;;;1.20;99.90;;;;;;5045725;28;20192;-79
2022/01/21 04:03:55;;;;;;;13.47;2.00;;;1.20;99.90;;;;;;5031259;28;20250;-80
2022/01/21 04:06:21;;;;;;;16.97;2.17;;;1.30;99.90;;;;;;5020583;28;20614;-79
2022/01/21 04:08:48;;;;;;;14.20;2.33;;;1.30;99.90;;;;;;5046459;28;20204;-80
2022/01/21 04:11:13;;;;;;;11.57;2.23;;;1.30;99.90;;;;;;5024030;28;20669;-80
2022/01/21 04:13:45;;;;;;;9.43;1.93;;;1.30;99.90;;;;;;5023921;28;20209;-80
2022/01/21 04:16:15;;;;;;;12.83;2.50;;;1.40;99.90;;;;;;5008261;28;20171;-79
2022/01/21 04:18:40;;;;;;;10.40;2.40;;;1.40;99.90;;;;;;5025292;28;20181;-80
2022/01/21 04:21:12;;;;;;;12.90;2.53;;;1.40;99.90;;;;;;5036542;28;20642;-80
2022/01/21 04:23:40;;;;;;;12.90;2.40;;;1.50;99.90;;;;;;5015779;28;20201;-80
2022/01/21 04:26:07;;;;;;;16.80;2.70;;;1.50;99.90;;;;;;5014038;28;20179;-78
2022/01/21 04:28:34;;;;;;;13.60;2.43;;;1.50;99.90;;;;;;4991951;28;20185;-79
2022/01/21 04:31:02;;;;;;;10.30;2.40;;;1.40;99.90;;;;;;5021389;28;20286;-80
2022/01/21 04:33:43;;;;;;;10.87;2.20;;;1.40;99.90;;;;;;5025248;28;20206;-80
2022/01/21 04:36:09;;;;;;;11.47;2.23;;;1.50;99.90;;;;;;5022605;28;20179;-80
2022/01/21 04:38:38;;;;;;;15.37;3.00;;;1.50;99.90;;;;;;5010347;28;20178;-79
2022/01/21 04:41:22;;;;;;;17.30;2.60;;;1.60;99.90;;;;;;5005936;28;20330;-79
2022/01/21 04:49:20;;;;;;;12.70;2.20;;;1.60;99.90;;;;;;5019876;28;20179;-81
2022/01/21 04:52:03;;;;;;;11.37;2.37;;;1.50;99.90;;;;;;5010713;28;20191;-80
2022/01/21 04:54:38;;;;;;;13.87;2.47;;;1.60;99.90;;;;;;5007476;28;20212;-79
2022/01/21 04:57:06;;;;;;;15.90;2.27;;;1.60;99.90;;;;;;5009059;28;20628;-79
2022/01/21 04:59:32;;;;;;;13.17;2.43;;;1.50;99.90;;;;;;5005469;28;20222;-80
2022/01/21 05:01:58;;;;;;;13.33;2.43;;;1.50;99.90;;;;;;5027884;28;20202;-80
2022/01/21 05:04:24;;;;;;;15.27;2.63;;;1.50;99.90;;;;;;5002870;28;20719;-80
2022/01/21 05:06:52;;;;;;;9.83;2.43;;;1.50;99.90;;;;;;5028272;28;20278;-80
2022/01/21 05:09:29;;;;;;;15.93;2.87;;;1.50;99.90;;;;;;5009762;28;20198;-79
2022/01/21 05:11:56;;;;;;;11.00;2.50;;;1.50;99.90;;;;;;4988097;28;20545;-78
2022/01/21 05:14:25;;;;;;;14.87;2.20;;;1.50;99.90;;;;;;4994495;28;20210;-79
2022/01/21 05:17:04;;;;;;;14.13;2.30;;;1.40;99.90;;;;;;5022308;28;20181;-79
2022/01/21 05:19:29;;;;;;;15.30;2.60;;;1.30;99.90;;;;;;5008483;28;20177;-79
2022/01/21 05:22:08;;;;;;;14.80;2.70;;;1.30;99.90;;;;;;5037564;28;20198;-79
2022/01/21 05:24:42;;;;;;;15.23;2.83;;;1.30;99.90;;;;;;4986960;28;20241;-80
2022/01/21 05:27:11;;;;;;;15.13;2.43;;;1.30;99.90;;;;;;5024522;28;20192;-79
2022/01/21 05:29:42;;;;;;;11.67;2.30;;;1.30;99.90;;;;;;5015369;28;20171;-79
2022/01/21 05:32:16;;;;;;;12.33;2.47;;;1.30;99.90;;;;;;5005806;28;20185;-79
2022/01/21 05:35:00;;;;;;;14.70;2.53;;;1.30;99.90;;;;;;5022591;28;20171;-80
2022/01/21 05:37:44;;;;;;;12.13;2.50;;;1.30;99.90;;;;;;5036622;28;20273;-80
2022/01/21 05:40:16;;;;;;;13.37;2.10;;;1.30;99.90;;;;;;5004752;28;20183;-80
2022/01/21 05:43:05;;;;;;;11.13;2.23;;;1.30;99.90;;;;;;5021033;28;20608;-79
2022/01/21 05:48:52;;;;;;;15.07;1.70;;;1.40;99.90;;;;;;5025311;28;20201;-80
2022/01/21 05:51:39;;;;;;;13.63;2.07;;;1.50;99.90;;;;;;5022556;28;20248;-80
2022/01/21 05:54:28;;;;;;;12.83;2.33;;;1.50;99.90;;;;;;5017997;28;20283;-80
2022/01/21 05:57:19;;;;;;;10.90;1.97;;;1.50;99.90;;;;;;5022079;28;20303;-80
2022/01/21 05:59:49;;;;;;;11.17;2.20;;;1.50;99.90;;;;;;5004585;28;20189;-80
2022/01/21 06:02:15;;;;;;;8.63;1.90;;;1.40;99.90;;;;;;4992558;28;20269;-80
2022/01/21 06:04:44;;;;;;;10.20;2.20;;;1.40;99.90;;;;;;5024041;28;20171;-79
2022/01/21 06:07:10;;;;;;;11.63;2.10;;;1.40;99.90;;;;;;5024412;28;20174;-80
2022/01/21 06:09:37;;;;;;;8.83;1.97;;;1.40;99.90;;;;;;5007801;28;20179;-80
2022/01/21 06:12:05;;;;;;;8.13;2.23;;;1.40;99.90;;;;;;5006049;28;20202;-79
2022/01/21 06:14:30;;;;;;;11.07;2.63;;;1.40;99.90;;;;;;5009919;28;20230;-80
2022/01/21 06:16:59;;;;;;;9.20;2.27;;;1.40;99.90;;;;;;5008604;28;20185;-80
2022/01/21 06:19:25;;;;;;;12.17;2.00;;;1.30;99.90;;;;;;5008275;28;20269;-80
2022/01/21 06:21:51;;;;;;;12.00;1.87;;;1.20;99.90;;;;;;5007995;28;20198;-80
2022/01/21 06:24:17;;;;;;;12.63;2.00;;;1.20;99.90;;;;;;5024981;28;20179;-81
2022/01/21 06:26:44;;;;;;;7.80;2.10;;;1.20;99.90;;;;;;5023899;28;20182;-80
2022/01/21 06:29:09;;;;;;;12.43;2.10;;;1.20;99.90;;;;;;5009113;28;20182;-79
2022/01/21 06:31:39;;;;;;;13.47;2.40;;;1.10;99.90;;;;;;5025676;28;20244;-80
2022/01/21 06:34:05;;;;;;;9.10;1.80;;;1.10;99.90;;;;;;5011062;28;20209;-81
2022/01/21 06:36:31;;;;;;;11.00;2.03;;;1.10;99.90;;;;;;5010943;28;20179;-80
2022/01/21 06:38:57;;;;;;;10.67;2.03;;;1.10;99.90;;;;;;5013378;28;20270;-80
2022/01/21 06:41:23;;;;;;;9.93;2.00;;;1.10;99.90;;;;;;5018817;28;20194;-78
2022/01/21 06:43:50;;;;;;;9.37;1.70;;;1.00;99.90;;;;;;5019253;28;20234;-82
2022/01/21 06:46:16;;;;;;;6.20;1.80;;;1.00;99.90;;;;;;5019852;28;20174;-80
2022/01/21 06:49:11;;;;;;;8.00;1.80;;;1.00;99.90;;;;;;5040186;28;20162;-79
2022/01/21 06:51:37;;;;;;;15.30;2.20;;;1.00;99.90;;;;;;5040611;28;20186;-81
2022/01/21 06:54:03;;;;;;;13.30;2.07;;;1.00;99.90;;;;;;5040996;28;20209;-80
2022/01/21 06:56:30;;;;;;;9.00;2.07;;;0.90;99.90;;;;;;5024376;28;20163;-80
2022/01/21 06:58:56;;;;;;;9.87;1.93;;;0.90;99.90;;;;;;5024543;28;20187;-80
2022/01/21 07:01:24;;;;;;;6.87;1.73;;;0.90;99.90;;;;;;5040198;28;20258;-81
2022/01/21 07:03:50;;;;;;;9.33;2.13;;;0.90;99.90;;;;;;5024598;28;20234;-80
2022/01/21 07:06:15;;;;;;;7.07;2.00;;;0.90;99.90;;;;;;5023210;28;20179;-79
2022/01/21 07:08:41;;;;;;;7.87;2.43;;;0.80;99.90;;;;;;5039868;28;20191;-80
2022/01/21 07:11:07;;;;;;;12.17;2.23;;;0.80;99.90;;;;;;5039822;28;20223;-80
2022/01/21 07:13:34;;;;;;;9.13;2.07;;;0.70;99.90;;;;;;5038994;28;20222;-80
2022/01/21 07:16:00;;;;;;;9.27;2.00;;;0.80;99.90;;;;;;5022320;28;20182;-80
2022/01/21 07:18:27;;;;;;;8.47;1.60;;;0.80;99.90;;;;;;5038391;28;20193;-81
2022/01/21 07:20:53;;;;;;;7.37;1.43;;;0.70;99.90;;;;;;5021307;28;20198;-80
2022/01/21 07:23:19;;;;;;;8.43;1.60;;;0.70;99.90;;;;;;5037859;28;20159;-79
2022/01/21 07:25:44;;;;;;;13.07;2.10;;;0.70;99.90;;;;;;5035833;28;20179;-79
2022/01/21 07:28:10;;;;;;;6.63;2.10;;;0.70;99.90;;;;;;5020230;28;20179;-80
2022/01/21 07:30:36;;;;;;;8.33;1.73;;;0.70;99.90;;;;;;5037035;28;20193;-79
2022/01/21 07:33:02;;;;;;;10.17;1.80;;;0.70;99.90;;;;;;5035986;28;20210;-79
2022/01/21 07:35:27;;;;;;;9.83;2.23;;;0.70;99.90;;;;;;5015355;28;20186;-79
2022/01/21 07:37:53;;;;;;;8.90;2.13;;;0.70;99.90;;;;;;5014561;28;20211;-79
2022/01/21 07:40:19;;;;;;;11.50;1.80;;;0.70;99.90;;;;;;5016828;28;20183;-80
2022/01/21 07:42:45;;;;;;;7.63;1.67;;;0.70;99.90;;;;;;5016825;28;20199;-80
2022/01/21 07:45:11;;;;;;;8.23;1.87;;;0.60;99.90;;;;;;5017988;28;20175;-80
2022/01/21 07:47:37;;;;;;;6.80;1.40;;;0.60;99.90;;;;;;5020702;28;20311;-80
2022/01/21 07:50:03;;;;;;;6.17;1.63;;;0.60;99.90;;;;;;5000190;28;20174;-81
2022/01/21 07:52:29;;;;;;;9.43;2.00;;;0.60;99.90;;;;;;5036182;28;20202;-81
2022/01/21 07:54:57;;;;;;;7.20;1.73;;;0.60;99.90;;;;;;5015371;28;20214;-79
2022/01/21 07:57:23;;;;;;;13.17;1.83;;;0.60;99.90;;;;;;5026463;28;20250;-79
2022/01/21 07:59:49;;;;;;;6.60;1.87;;;0.60;99.90;;;;;;5011177;28;20182;-79
2022/01/21 08:02:15;;;;;;;8.00;1.80;;;0.60;99.90;;;;;;5007002;28;20195;-79
2022/01/21 08:04:49;;;;;;;10.57;2.03;;;0.50;99.90;;;;;;4997461;28;20189;-79
2022/01/21 08:07:17;;;;;;;6.67;1.47;;;0.60;99.90;;;;;;4999950;28;20197;-79
2022/01/21 08:09:43;;;;;;;7.23;1.80;;;0.60;99.90;;;;;;5013542;28;20193;-79
2022/01/21 08:12:11;;;;;;;9.77;1.93;;;0.60;99.90;;;;;;5016307;28;20195;-80
2022/01/21 08:14:37;;;;;;;10.53;2.00;;;0.70;99.90;;;;;;5035445;28;20211;-80
2022/01/21 08:17:03;;;;;;;7.63;1.53;;;0.70;99.90;;;;;;5034755;28;20171;-79
2022/01/21 08:19:29;;;;;;;9.40;1.47;;;0.70;99.90;;;;;;5018203;28;20179;-80
2022/01/21 08:21:56;;;;;;;15.70;1.90;;;0.70;99.90;;;;;;5034215;28;20206;-81
2022/01/21 08:24:22;;;;;;;6.17;1.70;;;0.70;99.90;;;;;;5031815;28;20196;-80
2022/01/21 08:26:48;;;;;;;5.80;1.60;;;0.70;99.90;;;;;;5010260;28;20320;-80
2022/01/21 08:29:14;;;;;;;5.70;2.00;;;0.70;99.90;;;;;;5011894;28;20190;-80
2022/01/21 08:31:46;;;;;;;6.60;1.70;;;0.70;99.90;;;;;;5009364;28;20225;-80
2022/01/21 08:34:13;;;;;;;6.87;1.93;;;0.70;99.90;;;;;;4993341;28;20269;-80
2022/01/21 08:36:40;;;;;;;5.07;1.77;;;0.70;99.90;;;;;;5014618;28;20178;-79
2022/01/21 08:39:06;;;;;;;6.43;1.43;;;0.70;99.90;;;;;;5007082;28;20183;-79
2022/01/21 08:41:33;;;;;;;4.73;1.30;;;0.80;99.90;;;;;;5022504;28;20199;-79
2022/01/21 08:43:59;;;;;;;3.57;1.47;;;0.80;99.90;;;;;;5034154;28;20179;-80
2022/01/21 08:46:25;;;;;;;6.23;1.70;;;0.80;99.90;;;;;;5035354;28;20205;-79
2022/01/21 08:48:51;;;;;;;6.53;1.73;;;0.70;99.90;;;;;;5036902;28;20179;-79
2022/01/21 08:51:28;;;;;;;4.93;1.40;;;0.80;99.90;;;;;;5036141;28;20198;-79
2022/01/21 08:53:54;;;;;;;7.63;1.70;;;0.80;99.90;;;;;;5019358;28;20274;-79
2022/01/21 08:56:20;;;;;;;8.57;2.43;;;0.80;99.90;;;;;;5036812;28;20194;-80
2022/01/21 08:58:48;;;;;;;6.67;1.60;;;0.90;99.90;;;;;;5020627;28;20197;-80
2022/01/21 09:01:15;;;;;;;7.33;1.40;;;1.00;99.90;;;;;;5019269;28;20174;-80
2022/01/21 09:03:50;;;;;;;4.73;1.57;;;0.90;99.90;;;;;;5013261;28;20175;-79
2022/01/21 09:06:18;;;;;;;8.33;1.97;;;1.00;99.90;;;;;;5009954;28;20277;-80
2022/01/21 09:08:46;;;;;;;6.20;1.73;;;1.00;99.90;;;;;;5008383;28;20178;-81
2022/01/21 09:11:12;;;;;;;4.63;1.87;;;1.10;99.90;;;;;;5021436;23;20290;-80
2022/01/21 09:13:40;;;;;;;8.23;1.70;;;1.20;99.90;;;;;;5047755;28;20212;-80
2022/01/21 10:20:27;;;;;;;8.27;1.80;;;2.30;98.10;;;;;;4976301;28;20204;-81
2022/01/21 10:23:00;;;;;;;5.63;1.47;;;2.30;98.50;;;;;;4951721;28;20180;-81
2022/01/21 10:25:27;;;;;;;6.73;1.70;;;2.40;99.00;;;;;;4949815;28;20218;-81
2022/01/21 10:28:08;;;;;;;8.37;1.50;;;2.40;99.30;;;;;;4948967;28;20167;-81
2022/01/21 10:30:45;;;;;;;6.10;1.20;;;2.50;99.50;;;;;;4946058;28;20266;-82
2022/01/21 10:33:26;;;;;;;6.57;1.83;;;2.60;99.60;;;;;;4968038;28;20584;-81
2022/01/21 10:36:28;;;;;;;7.03;1.60;;;2.60;99.90;;;;;;4929818;29;20176;-81
2022/01/21 10:39:18;;;;;;;6.27;1.33;;;2.70;99.90;;;;;;4929575;29;20185;-82
2022/01/21 10:41:48;;;;;;;8.63;1.70;;;2.90;99.90;;;;;;4929780;29;20228;-81
2022/01/21 10:44:17;;;;;;;5.63;1.53;;;2.90;99.90;;;;;;4929888;29;20540;-82
2022/01/21 10:46:59;;;;;;;5.43;1.57;;;3.00;99.90;;;;;;4961620;28;20289;-82
2022/01/21 10:49:25;;;;;;;7.00;1.70;;;3.00;99.90;;;;;;4945381;29;20279;-80
2022/01/21 10:51:55;;;;;;;6.57;1.80;;;3.00;99.90;;;;;;4961619;28;20227;-81
2022/01/21 10:54:23;;;;;;;5.07;1.67;;;3.10;99.90;;;;;;4928772;29;20204;-81
2022/01/21 10:57:12;;;;;;;4.90;1.50;;;3.10;99.90;;;;;;4930338;29;20179;-81
2022/01/21 10:59:47;;;;;;;7.20;1.43;;;3.20;99.90;;;;;;4945269;29;20173;-80
2022/01/21 11:02:14;;;;;;;6.70;1.50;;;3.20;99.90;;;;;;4962523;28;20567;-80
2022/01/21 11:04:44;;;;;;;5.80;1.57;;;3.10;99.90;;;;;;4962967;28;20188;-79
2022/01/21 11:07:44;;;;;;;11.47;1.83;;;3.20;99.90;;;;;;4945690;28;20306;-79
2022/01/21 11:10:46;;;;;;;10.47;2.10;;;3.20;99.90;;;;;;4942047;28;20196;-79
2022/01/21 11:13:12;;;;;;;11.57;2.40;;;3.20;99.90;;;;;;4961533;28;20992;-80
2022/01/21 11:15:43;;;;;;;6.43;1.83;;;3.30;99.90;;;;;;4953597;28;20225;-79
2022/01/21 11:18:13;;;;;;;11.07;1.93;;;3.40;99.90;;;;;;4962200;28;20195;-79
2022/01/21 11:20:41;;;;;;;12.93;2.07;;;3.50;99.90;;;;;;4944556;28;20180;-78
2022/01/21 11:23:08;;;;;;;9.80;2.33;;;3.50;99.90;;;;;;4949391;28;20180;-79
2022/01/21 11:25:48;;;;;;;8.43;1.53;;;3.60;99.90;;;;;;4947872;28;20188;-79
2022/01/21 11:28:19;;;;;;;13.50;2.07;;;3.80;99.90;;;;;;4944572;28;20184;-78
2022/01/21 11:30:46;;;;;;;7.43;1.73;;;4.00;99.90;;;;;;4958472;28;20192;-79
2022/01/21 11:33:13;;;;;;;10.27;1.77;;;4.10;99.90;;;;;;4961345;28;20302;-81
2022/01/21 11:35:40;;;;;;;7.07;2.13;;;4.10;99.90;;;;;;4955042;28;20180;-81
2022/01/21 11:38:08;;;;;;;10.13;2.27;;;4.10;99.90;;;;;;4944660;29;20181;-81
2022/01/21 11:40:34;;;;;;;11.40;2.30;;;4.30;99.90;;;;;;4957379;28;20183;-83
2022/01/21 11:43:05;;;;;;;12.40;2.13;;;4.40;99.90;;;;;;4953868;28;20188;-82
2022/01/21 11:45:54;;;;;;;9.10;2.13;;;4.50;99.90;;;;;;4968231;28;20239;-81
2022/01/21 11:50:51;;;;;;;6.57;2.33;;;4.50;99.90;;;;;;4984351;28;20208;-82
2022/01/21 11:53:51;;;;;;;11.87;3.93;;;4.50;99.90;;;;;;4950313;28;20199;-82
2022/01/21 11:56:37;;;;;;;8.37;3.47;;;4.50;99.90;;;;;;4949897;28;20185;-82
2022/01/21 11:59:20;;;;;;;10.97;3.07;;;4.50;99.90;;;;;;4949508;28;20694;-82
2022/01/21 12:01:47;;;;;;;11.13;2.20;;;4.50;99.90;;;;;;4944863;29;20202;-80
2022/01/21 12:04:39;;;;;;;9.77;2.23;;;4.50;99.90;;;;;;4946233;29;20196;-79
2022/01/21 12:07:37;;;;;;;9.53;2.17;;;4.50;99.90;;;;;;4948280;28;20540;-82
2022/01/21 12:10:21;;;;;;;11.77;2.30;;;4.50;99.90;;;;;;4964242;28;20188;-81
2022/01/21 12:15:45;;;;;;;12.40;2.87;;;4.60;99.90;;;;;;4965459;28;20203;-80
2022/01/21 12:20:45;;;;;;;10.23;2.50;;;4.80;99.90;;;;;;4961244;28;20217;-80
2022/01/21 12:23:14;;;;;;;9.93;2.27;;;4.90;99.90;;;;;;4945732;29;20184;-80
2022/01/21 12:26:12;;;;;;;10.80;2.17;;;4.90;99.90;;;;;;4949843;28;20239;-80
2022/01/21 12:29:07;;;;;;;9.37;1.73;;;4.90;99.90;;;;;;4958133;28;20171;-80
2022/01/21 12:32:06;;;;;;;17.70;2.30;;;4.70;99.90;;;;;;4945608;28;20294;-79
2022/01/21 12:34:26;;;;;;;10.20;2.30;;;4.70;99.90;;;;;;4979572;28;20219;-79
2022/01/21 12:36:56;;;;;;;11.07;2.60;;;4.70;99.90;;;;;;4947924;28;20206;-79
2022/01/21 12:39:40;;;;;;;10.77;2.30;;;4.70;99.90;;;;;;4947664;28;20180;-80
2022/01/21 12:42:27;;;;;;;9.17;2.40;;;4.70;99.90;;;;;;4946637;28;20588;-79
2022/01/21 12:45:08;;;;;;;10.40;2.63;;;4.70;99.90;;;;;;4947090;28;20191;-79
2022/01/21 12:47:39;;;;;;;10.07;2.23;;;4.60;99.90;;;;;;4963273;28;20184;-79
2022/01/21 12:50:15;;;;;;;12.47;2.43;;;4.70;99.90;;;;;;4963364;28;20188;-79
2022/01/21 12:55:56;;;;;;;12.90;2.23;;;4.80;99.90;;;;;;4962128;28;20219;-80
2022/01/21 12:58:26;;;;;;;11.97;2.37;;;4.80;99.90;;;;;;4946078;28;20185;-80
2022/01/21 13:01:03;;;;;;;12.30;2.73;;;4.90;99.90;;;;;;4946743;28;20207;-80
2022/01/21 13:03:43;;;;;;;11.73;2.97;;;4.90;99.90;;;;;;4946856;28;20180;-80
2022/01/21 13:06:19;;;;;;;13.23;4.20;;;4.90;99.90;;;;;;4946828;28;20210;-80
2022/01/21 13:09:08;;;;;;;10.70;2.47;;;5.00;99.90;;;;;;4961765;28;20176;-80
2022/01/21 13:11:43;;;;;;;13.60;2.60;;;4.90;99.90;;;;;;4961728;28;20203;-80
2022/01/21 13:14:25;;;;;;;14.57;3.10;;;4.90;99.90;;;;;;4946188;28;20548;-80
2022/01/21 13:16:58;;;;;;;8.83;2.50;;;4.90;99.90;;;;;;4947046;28;20203;-80
2022/01/21 13:19:23;;;;;;;12.47;2.60;;;4.90;99.90;;;;;;4946312;28;20196;-80
2022/01/21 13:21:49;;;;;;;14.73;2.23;;;4.90;99.90;;;;;;4951556;28;20210;-81
2022/01/21 13:24:27;;;;;;;9.30;1.97;;;4.90;99.90;;;;;;4947040;28;20184;-81
2022/01/21 13:26:53;;;;;;;8.73;2.60;;;4.90;99.90;;;;;;4949234;28;20620;-80
2022/01/21 13:29:33;;;;;;;10.07;2.67;;;4.90;99.90;;;;;;4946200;28;20181;-80
2022/01/21 13:32:01;;;;;;;8.87;2.67;;;5.00;99.90;;;;;;4945845;28;20203;-79
2022/01/21 13:34:39;;;;;;;14.10;2.80;;;5.00;99.90;;;;;;4946862;28;20208;-80
2022/01/21 13:37:08;;;;;;;11.57;3.17;;;5.00;99.90;;;;;;4945601;28;20173;-80
2022/01/21 13:39:44;;;;;;;14.77;3.80;;;5.00;99.90;;;;;;4945791;28;20201;-80
2022/01/21 13:42:12;;;;;;;17.77;4.20;;;5.10;99.90;;;;;;4944587;28;20201;-79
2022/01/21 13:44:48;;;;;;;13.97;2.93;;;5.10;99.90;;;;;;4951787;28;20164;-79
2022/01/21 13:47:28;;;;;;;11.47;2.90;;;5.10;99.90;;;;;;4962308;28;20206;-79
2022/01/21 13:50:05;;;;;;;8.93;2.27;;;5.20;99.90;;;;;;4962064;28;20190;-79
2022/01/21 13:52:42;;;;;;;11.30;2.20;;;5.30;99.90;;;;;;4957141;29;20211;-79
2022/01/21 13:55:11;;;;;;;12.43;2.10;;;5.20;99.90;;;;;;4943508;29;20209;-80
2022/01/21 13:57:44;;;;;;;10.97;2.10;;;5.20;99.90;;;;;;4942884;29;20517;-80
2022/01/21 14:00:11;;;;;;;11.13;2.30;;;5.20;99.90;;;;;;4942648;29;20178;-80
2022/01/21 14:02:37;;;;;;;12.90;2.47;;;5.00;99.90;;;;;;4965817;28;20248;-80
2022/01/21 14:05:03;;;;;;;8.37;2.20;;;4.90;99.90;;;;;;4966534;28;20256;-80
2022/01/21 14:07:31;;;;;;;13.60;2.30;;;4.80;99.90;;;;;;4951126;29;20177;-79
2022/01/21 14:09:58;;;;;;;11.53;2.27;;;4.80;99.90;;;;;;4950562;29;20296;-79
2022/01/21 14:12:25;;;;;;;8.40;2.13;;;4.70;99.90;;;;;;4965848;28;20268;-80
2022/01/21 14:14:53;;;;;;;9.50;2.30;;;4.60;99.90;;;;;;4950582;29;20212;-80
2022/01/21 14:17:24;;;;;;;11.67;2.80;;;4.50;99.90;;;;;;4949440;28;20271;-79
2022/01/21 14:19:51;;;;;;;9.93;2.67;;;4.40;99.90;;;;;;4961049;28;20187;-79
2022/01/21 14:22:19;;;;;;;10.00;2.37;;;4.50;99.90;;;;;;4946858;28;20528;-79
2022/01/21 14:24:48;;;;;;;13.30;2.80;;;4.50;99.90;;;;;;4945247;28;20179;-79
2022/01/21 14:27:22;;;;;;;9.67;2.30;;;4.40;99.90;;;;;;4944927;28;20210;-78
2022/01/21 14:29:55;;;;;;;14.47;2.70;;;4.50;99.90;;;;;;4945149;28;20179;-78
2022/01/21 14:32:34;;;;;;;11.47;2.30;;;4.50;99.90;;;;;;4943383;28;20204;-79
2022/01/21 14:35:10;;;;;;;12.17;2.80;;;4.40;99.90;;;;;;4946047;28;20199;-79
2022/01/21 14:37:47;;;;;;;12.07;2.83;;;4.50;99.90;;;;;;4945742;28;20231;-79
2022/01/21 14:40:15;;;;;;;16.33;2.30;;;4.50;99.90;;;;;;4949648;28;20319;-80
2022/01/21 14:42:42;;;;;;;10.13;2.27;;;4.50;99.90;;;;;;4945350;28;20195;-80
2022/01/21 14:45:18;;;;;;;11.63;2.53;;;4.40;99.90;;;;;;4945247;28;20196;-80
2022/01/21 14:47:46;;;;;;;10.60;2.20;;;4.50;99.90;;;;;;4950343;28;20180;-80
2022/01/21 14:50:15;;;;;;;16.87;3.03;;;4.50;99.90;;;;;;4947714;28;20587;-80
2022/01/21 14:52:49;;;;;;;15.63;2.87;;;4.50;99.90;;;;;;4945034;28;20200;-80
2022/01/21 14:55:32;;;;;;;18.43;2.60;;;4.50;99.90;;;;;;4961321;28;20251;-80
2022/01/21 14:58:24;;;;;;;10.60;2.50;;;4.50;99.90;;;;;;4944974;28;20172;-80
2022/01/21 15:01:08;;;;;;;13.10;2.50;;;4.50;99.90;;;;;;4946091;28;20196;-80
2022/01/21 15:03:36;;;;;;;9.83;2.67;;;4.50;99.90;;;;;;4945799;28;20180;-80
2022/01/21 15:06:15;;;;;;;10.57;2.60;;;4.60;99.90;;;;;;4945412;28;20180;-80
2022/01/21 15:08:50;;;;;;;11.87;2.40;;;4.60;99.90;;;;;;4950379;28;20175;-80